createdAt,value
2022-11-19T00:00:42.880Z,21.69
2022-11-19T00:03:09.233Z,21.69
2022-11-19T00:05:39.099Z,21.67
2022-11-19T00:08:05.451Z,21.70
2022-11-19T00:10:33.352Z,21.69
2022-11-19T00:12:59.682Z,21.73
2022-11-19T00:15:26.027Z,21.77
2022-11-19T00:17:52.347Z,21.78
2022-11-19T00:20:18.692Z,21.78
2022-11-19T00:22:45.409Z,21.74
2022-11-19T00:25:11.725Z,21.72
2022-11-19T00:27:38.043Z,21.70
2022-11-19T00:30:10.948Z,21.66
2022-11-19T00:32:46.545Z,21.65
2022-11-19T00:35:12.947Z,21.66
2022-11-19T00:37:39.278Z,21.65
2022-11-19T00:40:07.763Z,21.65
2022-11-19T00:42:37.060Z,21.69
2022-11-19T00:45:03.390Z,21.70
2022-11-19T00:47:29.718Z,21.69
2022-11-19T00:49:56.323Z,21.66
2022-11-19T00:52:22.649Z,21.67
2022-11-19T00:54:48.964Z,21.66
2022-11-19T00:57:15.296Z,21.65
2022-11-19T00:59:41.604Z,21.65
2022-11-19T01:02:07.937Z,21.64
2022-11-19T01:04:34.344Z,21.64
2022-11-19T01:07:00.722Z,21.64
2022-11-19T01:09:29.365Z,21.62
2022-11-19T01:11:55.675Z,21.63
2022-11-19T01:14:21.999Z,21.63
2022-11-19T01:16:48.339Z,21.64
2022-11-19T01:19:16.513Z,21.65
2022-11-19T01:21:43.173Z,21.62
2022-11-19T01:24:09.498Z,21.66
2022-11-19T01:26:35.849Z,21.63
2022-11-19T01:29:03.174Z,21.64
2022-11-19T01:31:29.549Z,21.61
2022-11-19T01:33:55.873Z,21.60
2022-11-19T01:36:22.951Z,21.58
2022-11-19T01:38:52.254Z,21.60
2022-11-19T01:41:18.947Z,21.59
2022-11-19T01:43:46.322Z,21.59
2022-11-19T01:46:13.176Z,21.58
2022-11-19T01:48:40.738Z,21.62
2022-11-19T01:51:15.792Z,21.64
2022-11-19T01:53:49.344Z,21.64
2022-11-19T01:56:15.793Z,21.63
2022-11-19T01:58:46.123Z,21.63
2022-11-19T02:01:15.619Z,21.61
2022-11-19T02:03:42.102Z,21.61
2022-11-19T02:06:10.694Z,21.58
2022-11-19T02:08:43.761Z,21.56
2022-11-19T02:11:17.899Z,21.55
2022-11-19T02:13:49.522Z,21.57
2022-11-19T02:16:25.708Z,21.56
2022-11-19T02:18:55.876Z,21.59
2022-11-19T02:21:27.625Z,21.57
2022-11-19T02:24:00.867Z,21.55
2022-11-19T02:26:29.786Z,21.58
2022-11-19T02:29:10.777Z,21.59
2022-11-19T02:31:41.193Z,21.59
2022-11-19T02:34:12.351Z,21.58
2022-11-19T02:36:48.543Z,21.59
2022-11-19T02:39:15.838Z,21.57
2022-11-19T02:41:44.810Z,21.56
2022-11-19T02:44:29.914Z,21.52
2022-11-19T02:46:56.232Z,21.51
2022-11-19T02:49:23.498Z,21.50
2022-11-19T02:51:49.846Z,21.54
2022-11-19T02:54:16.503Z,21.56
2022-11-19T02:56:47.224Z,21.56
2022-11-19T02:59:32.201Z,21.56
2022-11-19T03:02:17.513Z,21.56
2022-11-19T03:04:43.843Z,21.59
2022-11-19T03:07:14.071Z,21.58
2022-11-19T03:09:41.819Z,21.56
2022-11-19T03:12:18.334Z,21.55
2022-11-19T03:15:06.862Z,21.52
2022-11-19T03:17:40.302Z,21.50
2022-11-19T03:20:06.680Z,21.50
2022-11-19T03:22:34.443Z,21.53
2022-11-19T03:25:06.107Z,21.53
2022-11-19T03:27:39.061Z,21.51
2022-11-19T03:30:05.664Z,21.54
2022-11-19T03:32:34.795Z,21.53
2022-11-19T03:35:01.978Z,21.50
2022-11-19T03:37:28.413Z,21.51
2022-11-19T03:39:55.760Z,21.54
2022-11-19T03:42:22.146Z,21.55
2022-11-19T03:44:49.784Z,21.57
2022-11-19T03:47:16.813Z,21.58
2022-11-19T03:49:44.524Z,21.58
2022-11-19T03:52:11.653Z,21.59
2022-11-19T03:54:38.199Z,21.62
2022-11-19T03:57:05.228Z,21.59
2022-11-19T03:59:31.540Z,21.58
2022-11-19T04:01:58.672Z,21.56
2022-11-19T04:04:37.307Z,21.56
2022-11-19T04:07:04.505Z,21.56
2022-11-19T04:09:30.863Z,21.54
2022-11-19T04:11:57.177Z,21.52
2022-11-19T04:14:23.514Z,21.52
2022-11-19T04:16:49.832Z,21.53
2022-11-19T04:19:18.052Z,21.52
2022-11-19T04:21:44.611Z,21.53
2022-11-19T04:24:10.949Z,21.50
2022-11-19T04:26:37.271Z,21.51
2022-11-19T04:29:03.596Z,21.54
2022-11-19T04:31:30.064Z,21.54
2022-11-19T04:33:56.396Z,21.53
2022-11-19T04:36:22.755Z,21.53
2022-11-19T04:38:49.090Z,21.55
2022-11-19T04:41:15.420Z,21.56
2022-11-19T04:43:41.740Z,21.57
2022-11-19T04:46:08.049Z,21.56
2022-11-19T04:48:34.381Z,21.57
2022-11-19T04:51:00.707Z,21.56
2022-11-19T04:53:27.036Z,21.55
2022-11-19T04:55:53.340Z,21.54
2022-11-19T04:58:19.659Z,21.53
2022-11-19T05:00:45.969Z,21.51
2022-11-19T05:03:12.292Z,21.49
2022-11-19T05:05:38.614Z,21.51
2022-11-19T05:08:05.002Z,21.50
2022-11-19T05:10:31.320Z,21.50
2022-11-19T05:12:57.653Z,21.52
2022-11-19T05:15:23.964Z,21.51
2022-11-19T05:17:50.293Z,21.53
2022-11-19T05:20:16.609Z,21.54
2022-11-19T05:22:42.937Z,21.55
2022-11-19T05:25:09.304Z,21.52
2022-11-19T05:27:35.619Z,21.55
2022-11-19T05:30:01.946Z,21.54
2022-11-19T05:32:28.276Z,21.56
2022-11-19T05:34:54.621Z,21.57
2022-11-19T05:37:20.980Z,21.57
2022-11-19T05:39:47.291Z,21.57
2022-11-19T05:42:13.595Z,21.55
2022-11-19T05:44:39.912Z,21.54
2022-11-19T05:47:06.259Z,21.52
2022-11-19T05:49:32.577Z,21.51
2022-11-19T05:51:58.889Z,21.50
2022-11-19T05:54:25.238Z,21.51
2022-11-19T05:56:51.605Z,21.51
2022-11-19T05:59:18.325Z,21.50
2022-11-19T06:01:44.850Z,21.51
2022-11-19T06:04:11.203Z,21.48
2022-11-19T06:06:37.606Z,21.51
2022-11-19T06:09:03.939Z,21.36
2022-11-19T06:11:48.630Z,21.38
2022-11-19T06:14:15.098Z,21.45
2022-11-19T06:16:41.421Z,21.47
2022-11-19T06:19:07.758Z,21.49
2022-11-19T06:21:34.084Z,21.48
2022-11-19T06:24:00.407Z,21.51
2022-11-19T06:26:27.417Z,21.50
2022-11-19T06:28:53.773Z,21.51
2022-11-19T06:31:20.220Z,21.51
2022-11-19T06:33:46.554Z,21.50
2022-11-19T06:36:13.873Z,21.49
2022-11-19T06:38:40.397Z,21.46
2022-11-19T06:41:06.714Z,21.47
2022-11-19T06:43:33.048Z,21.46
2022-11-19T06:45:59.363Z,21.44
2022-11-19T06:48:25.795Z,21.47
2022-11-19T06:50:52.145Z,21.47
2022-11-19T06:53:18.480Z,21.44
2022-11-19T06:55:44.807Z,21.49
2022-11-19T06:58:11.137Z,21.47
2022-11-19T07:00:37.448Z,21.48
2022-11-19T07:03:03.792Z,21.46
2022-11-19T07:05:30.104Z,21.45
2022-11-19T07:08:01.536Z,21.46
2022-11-19T07:10:29.460Z,21.46
2022-11-19T07:12:55.837Z,21.47
2022-11-19T07:15:22.199Z,21.48
2022-11-19T07:17:48.839Z,21.46
2022-11-19T07:20:15.303Z,21.46
2022-11-19T07:22:42.313Z,21.43
2022-11-19T07:25:09.400Z,21.41
2022-11-19T07:27:35.724Z,21.40
2022-11-19T07:30:04.131Z,21.40
2022-11-19T07:32:30.458Z,21.43
2022-11-19T07:34:56.796Z,21.46
2022-11-19T07:37:23.105Z,21.40
2022-11-19T07:39:49.425Z,21.44
2022-11-19T07:42:34.505Z,21.48
2022-11-19T07:45:07.703Z,21.47
2022-11-19T07:47:34.310Z,21.47
2022-11-19T07:50:00.640Z,21.45
2022-11-19T07:52:26.975Z,21.44
2022-11-19T07:54:53.296Z,21.41
2022-11-19T07:57:19.752Z,21.46
2022-11-19T07:59:46.096Z,21.45
2022-11-19T08:02:12.524Z,21.52
2022-11-19T08:04:39.066Z,21.56
2022-11-19T08:07:05.460Z,21.46
2022-11-19T08:09:32.444Z,21.58
2022-11-19T08:11:58.767Z,21.78
2022-11-19T08:14:25.100Z,21.87
2022-11-19T08:17:10.036Z,21.80
2022-11-19T08:19:36.503Z,21.70
2022-11-19T08:22:02.833Z,21.69
2022-11-19T08:24:29.418Z,20.61
2022-11-19T08:26:55.787Z,20.60
2022-11-19T08:29:23.689Z,21.16
2022-11-19T08:31:50.023Z,21.37
2022-11-19T08:34:16.441Z,21.26
2022-11-19T08:36:43.305Z,21.34
2022-11-19T08:39:09.649Z,21.45
2022-11-19T08:41:54.576Z,21.49
2022-11-19T08:44:21.193Z,21.45
2022-11-19T08:46:47.907Z,21.49
2022-11-19T08:49:14.247Z,21.49
2022-11-19T08:51:40.606Z,21.49
2022-11-19T08:54:06.957Z,21.50
2022-11-19T08:56:33.303Z,21.53
2022-11-19T08:59:02.769Z,21.54
2022-11-19T09:01:29.420Z,21.53
2022-11-19T09:03:55.750Z,21.58
2022-11-19T09:06:22.070Z,21.61
2022-11-19T09:08:48.418Z,21.63
2022-11-19T09:11:15.496Z,21.42
2022-11-19T09:13:41.826Z,21.12
2022-11-19T09:16:08.443Z,21.21
2022-11-19T09:18:38.920Z,21.49
2022-11-19T09:21:05.545Z,21.42
2022-11-19T09:23:31.890Z,21.44
2022-11-19T09:26:01.730Z,21.46
2022-11-19T09:28:28.059Z,21.51
2022-11-19T09:30:55.373Z,21.50
2022-11-19T09:33:21.719Z,21.56
2022-11-19T09:35:48.037Z,19.97
2022-11-19T09:38:14.354Z,20.35
2022-11-19T09:40:43.679Z,20.87
2022-11-19T09:43:28.716Z,21.17
2022-11-19T09:46:03.700Z,21.33
2022-11-19T09:48:34.057Z,21.41
2022-11-19T09:51:01.605Z,21.44
2022-11-19T09:53:31.918Z,21.50
2022-11-19T09:55:59.102Z,21.51
2022-11-19T09:58:26.487Z,21.54
2022-11-19T10:00:52.905Z,21.55
2022-11-19T10:03:22.778Z,21.54
2022-11-19T10:06:07.263Z,21.54
2022-11-19T10:08:36.085Z,21.55
2022-11-19T10:11:21.268Z,21.53
2022-11-19T10:14:00.156Z,21.58
2022-11-19T10:16:36.572Z,21.60
2022-11-19T10:19:06.483Z,21.58
2022-11-19T10:21:35.517Z,21.60
2022-11-19T10:24:18.403Z,21.60
2022-11-19T10:26:47.145Z,21.56
2022-11-19T10:29:17.710Z,21.58
2022-11-19T10:31:44.946Z,21.59
2022-11-19T10:34:15.128Z,21.56
2022-11-19T10:36:52.130Z,21.54
2022-11-19T10:39:36.973Z,21.41
2022-11-19T10:42:08.049Z,21.57
2022-11-19T10:44:57.348Z,21.58
2022-11-19T10:47:44.315Z,21.52
2022-11-19T10:50:20.734Z,21.46
2022-11-19T10:52:51.922Z,21.58
2022-11-19T10:55:20.998Z,21.59
2022-11-19T10:57:47.328Z,21.57
2022-11-19T11:00:13.981Z,21.42
2022-11-19T11:03:02.956Z,21.51
2022-11-19T11:05:29.327Z,21.59
2022-11-19T11:07:56.945Z,21.66
2022-11-19T11:10:33.862Z,21.71
2022-11-19T11:13:38.007Z,21.71
2022-11-19T11:16:05.340Z,21.72
2022-11-19T11:18:31.721Z,21.74
2022-11-19T11:20:58.068Z,21.75
2022-11-19T11:23:24.761Z,21.74
2022-11-19T11:26:09.913Z,21.77
2022-11-19T11:28:36.306Z,21.74
2022-11-19T11:31:03.527Z,21.73
2022-11-19T11:33:53.922Z,21.72
2022-11-19T11:36:20.740Z,21.73
2022-11-19T11:38:47.644Z,21.74
2022-11-19T11:42:02.402Z,21.76
2022-11-19T11:44:17.955Z,21.80
2022-11-19T11:46:51.205Z,21.81
2022-11-19T11:49:20.435Z,21.82
2022-11-19T11:51:46.865Z,21.86
2022-11-19T11:54:18.294Z,21.88
2022-11-19T11:56:44.964Z,21.85
2022-11-19T11:59:15.400Z,21.87
2022-11-19T12:01:42.234Z,21.89
2022-11-19T12:04:11.401Z,21.91
2022-11-19T12:06:41.572Z,21.93
2022-11-19T12:09:17.269Z,21.96
2022-11-19T12:11:55.163Z,21.95
2022-11-19T12:14:21.404Z,21.96
2022-11-19T12:17:02.797Z,21.98
2022-11-19T12:19:32.937Z,22.02
2022-11-19T12:22:04.167Z,22.03
2022-11-19T12:24:36.463Z,22.03
2022-11-19T12:27:07.307Z,22.04
2022-11-19T12:29:45.609Z,22.04
2022-11-19T12:32:31.116Z,22.06
2022-11-19T12:35:16.064Z,22.06
2022-11-19T12:37:42.390Z,22.07
2022-11-19T12:40:20.733Z,22.08
2022-11-19T12:42:49.319Z,22.09
2022-11-19T12:45:36.765Z,22.07
2022-11-19T12:48:15.376Z,22.07
2022-11-19T12:51:00.504Z,22.05
2022-11-19T12:53:32.679Z,22.03
2022-11-19T12:56:08.706Z,22.04
2022-11-19T12:58:34.944Z,21.98
2022-11-19T13:01:03.790Z,21.99
2022-11-19T13:03:48.903Z,22.00
2022-11-19T13:06:19.658Z,22.01
2022-11-19T13:08:53.877Z,22.02
2022-11-19T13:11:21.656Z,22.04
2022-11-19T13:13:48.824Z,22.05
2022-11-19T13:16:16.031Z,22.07
2022-11-19T13:18:43.244Z,22.06
2022-11-19T13:21:28.260Z,22.07
2022-11-19T13:23:54.570Z,22.05
2022-11-19T13:26:23.118Z,22.07
2022-11-19T13:28:54.265Z,22.10
2022-11-19T13:31:28.144Z,22.08
2022-11-19T13:33:59.477Z,22.11
2022-11-19T13:36:27.760Z,22.11
2022-11-19T13:38:58.605Z,22.11
2022-11-19T13:41:27.849Z,22.08
2022-11-19T13:44:13.954Z,22.09
2022-11-19T13:46:47.357Z,22.07
2022-11-19T13:49:16.632Z,22.04
2022-11-19T13:51:44.273Z,22.03
2022-11-19T13:54:21.393Z,22.04
2022-11-19T13:56:48.387Z,22.06
2022-11-19T13:59:26.881Z,22.08
2022-11-19T14:02:00.135Z,22.09
2022-11-19T14:04:32.431Z,22.10
2022-11-19T14:07:04.745Z,22.09
2022-11-19T14:09:42.930Z,22.11
2022-11-19T14:12:17.324Z,22.11
2022-11-19T14:15:15.656Z,22.12
2022-11-19T14:18:18.445Z,22.12
2022-11-19T14:21:03.696Z,22.16
2022-11-19T14:24:06.993Z,22.15
2022-11-19T14:26:42.274Z,22.14
2022-11-19T14:29:28.773Z,22.14
2022-11-19T14:32:01.137Z,22.14
2022-11-19T14:34:28.207Z,22.12
2022-11-19T14:36:54.885Z,22.12
2022-11-19T14:39:23.637Z,22.11
2022-11-19T14:42:10.006Z,22.12
2022-11-19T14:44:36.331Z,22.13
2022-11-19T14:47:21.530Z,22.14
2022-11-19T14:49:47.848Z,22.11
2022-11-19T14:52:19.594Z,22.14
2022-11-19T14:54:45.957Z,22.13
2022-11-19T14:57:25.935Z,22.14
2022-11-19T14:59:53.512Z,22.15
2022-11-19T15:02:24.439Z,22.15
2022-11-19T15:04:52.377Z,22.15
2022-11-19T15:07:33.713Z,22.16
2022-11-19T15:10:08.992Z,22.16
2022-11-19T15:12:41.009Z,22.16
2022-11-19T15:15:19.498Z,22.03
2022-11-19T15:18:02.349Z,22.00
2022-11-19T15:20:32.515Z,21.92
2022-11-19T15:23:17.587Z,22.06
2022-11-19T15:25:43.846Z,22.12
2022-11-19T15:28:39.300Z,22.22
2022-11-19T15:31:11.130Z,22.15
2022-11-19T15:33:40.411Z,22.17
2022-11-19T15:36:25.534Z,22.27
2022-11-19T15:38:56.986Z,22.24
2022-11-19T15:41:23.616Z,22.37
2022-11-19T15:43:51.775Z,22.33
2022-11-19T15:46:33.733Z,22.36
2022-11-19T15:49:20.826Z,22.40
2022-11-19T15:51:58.916Z,22.36
2022-11-19T15:54:29.675Z,22.35
2022-11-19T15:56:57.358Z,22.32
2022-11-19T15:59:23.748Z,22.34
2022-11-19T16:01:57.294Z,22.35
2022-11-19T16:04:23.760Z,22.30
2022-11-19T16:06:50.446Z,22.32
2022-11-19T16:09:18.185Z,22.21
2022-11-19T16:12:03.579Z,22.19
2022-11-19T16:14:48.661Z,22.15
2022-11-19T16:17:39.940Z,22.14
2022-11-19T16:20:09.597Z,22.17
2022-11-19T16:22:37.561Z,22.22
2022-11-19T16:25:05.154Z,22.17
2022-11-19T16:27:31.800Z,22.13
2022-11-19T16:29:58.114Z,22.12
2022-11-19T16:32:24.687Z,22.09
2022-11-19T16:34:50.993Z,22.05
2022-11-19T16:37:18.972Z,21.96
2022-11-19T16:39:48.731Z,21.90
2022-11-19T16:42:18.893Z,21.83
2022-11-19T16:44:45.654Z,21.81
2022-11-19T16:47:21.550Z,21.80
2022-11-19T16:49:47.810Z,21.71
2022-11-19T16:52:32.379Z,21.59
2022-11-19T16:54:59.046Z,21.69
2022-11-19T16:57:25.821Z,21.78
2022-11-19T16:59:52.736Z,21.80
2022-11-19T17:02:19.314Z,21.80
2022-11-19T17:04:46.251Z,21.77
2022-11-19T17:07:14.354Z,21.66
2022-11-19T17:09:42.275Z,21.58
2022-11-19T17:12:25.044Z,21.56
2022-11-19T17:14:52.416Z,21.46
2022-11-19T17:17:29.023Z,21.31
2022-11-19T17:19:57.405Z,21.49
2022-11-19T17:22:26.700Z,21.46
2022-11-19T17:24:53.035Z,21.44
2022-11-19T17:27:29.297Z,21.44
2022-11-19T17:30:02.781Z,21.43
2022-11-19T17:32:33.080Z,21.44
2022-11-19T17:34:59.425Z,21.43
2022-11-19T17:37:25.758Z,21.41
2022-11-19T17:39:52.094Z,21.39
2022-11-19T17:42:37.176Z,21.38
2022-11-19T17:45:09.179Z,21.38
2022-11-19T17:47:37.021Z,21.36
2022-11-19T17:50:03.371Z,21.34
2022-11-19T17:52:30.349Z,21.34
2022-11-19T17:55:10.277Z,21.33
2022-11-19T17:57:42.369Z,21.33
2022-11-19T18:00:09.424Z,21.30
2022-11-19T18:02:36.074Z,21.30
2022-11-19T18:05:02.455Z,21.29
2022-11-19T18:07:28.817Z,21.28
2022-11-19T18:09:55.216Z,21.28
2022-11-19T18:12:21.569Z,21.27
2022-11-19T18:14:47.891Z,21.26
2022-11-19T18:17:14.511Z,21.26
2022-11-19T18:19:40.890Z,21.24
2022-11-19T18:22:09.932Z,21.25
2022-11-19T18:24:36.303Z,21.21
2022-11-19T18:27:02.659Z,21.22
2022-11-19T18:29:30.097Z,21.19
2022-11-19T18:31:56.444Z,21.20
2022-11-19T18:34:23.129Z,21.19
2022-11-19T18:36:49.529Z,21.21
2022-11-19T18:39:15.853Z,21.20
2022-11-19T18:41:42.169Z,21.19
2022-11-19T18:44:33.414Z,21.17
2022-11-19T18:47:06.753Z,21.16
2022-11-19T18:49:36.105Z,21.14
2022-11-19T18:52:02.793Z,21.13
2022-11-19T18:54:29.130Z,21.12
2022-11-19T18:56:55.471Z,21.13
2022-11-19T18:59:22.061Z,21.11
2022-11-19T19:01:48.702Z,21.12
2022-11-19T19:04:15.160Z,21.09
2022-11-19T19:06:41.550Z,21.08
2022-11-19T19:09:08.121Z,21.09
2022-11-19T19:11:53.274Z,21.11
2022-11-19T19:14:19.596Z,21.07
2022-11-19T19:16:53.265Z,21.06
2022-11-19T19:19:20.842Z,21.09
2022-11-19T19:21:47.449Z,21.16
2022-11-19T19:24:13.837Z,21.18
2022-11-19T19:26:40.181Z,21.19
2022-11-19T19:29:06.627Z,21.22
2022-11-19T19:31:32.949Z,21.22
2022-11-19T19:33:59.297Z,21.25
2022-11-19T19:36:25.647Z,21.22
2022-11-19T19:38:51.961Z,21.24
2022-11-19T19:41:18.310Z,21.25
2022-11-19T19:43:44.688Z,21.23
2022-11-19T19:46:16.150Z,21.16
2022-11-19T19:48:42.809Z,21.45
2022-11-19T19:51:09.128Z,21.47
2022-11-19T19:53:37.737Z,21.32
2022-11-19T19:56:04.243Z,21.30
2022-11-19T19:58:30.650Z,20.42
2022-11-19T20:01:06.829Z,20.64
2022-11-19T20:03:33.184Z,20.90
2022-11-19T20:05:59.502Z,21.00
2022-11-19T20:08:25.855Z,21.02
2022-11-19T20:10:52.238Z,21.01
2022-11-19T20:13:27.697Z,21.01
2022-11-19T20:15:56.992Z,21.01
2022-11-19T20:18:23.573Z,21.05
2022-11-19T20:20:49.914Z,21.11
2022-11-19T20:23:16.247Z,21.08
2022-11-19T20:25:42.653Z,21.18
2022-11-19T20:28:08.983Z,21.21
2022-11-19T20:30:35.300Z,21.24
2022-11-19T20:33:01.746Z,21.30
2022-11-19T20:35:29.087Z,21.31
2022-11-19T20:38:00.816Z,21.36
2022-11-19T20:40:29.767Z,21.37
2022-11-19T20:43:14.809Z,21.38
2022-11-19T20:45:41.271Z,21.39
2022-11-19T20:48:07.802Z,21.40
2022-11-19T20:50:34.499Z,21.42
2022-11-19T20:53:01.953Z,21.44
2022-11-19T20:55:28.498Z,21.43
2022-11-19T20:57:55.528Z,21.45
2022-11-19T21:00:22.151Z,21.48
2022-11-19T21:02:48.665Z,21.49
2022-11-19T21:05:15.217Z,21.50
2022-11-19T21:07:41.788Z,21.49
2022-11-19T21:10:08.555Z,21.49
2022-11-19T21:12:35.083Z,21.49
2022-11-19T21:15:02.120Z,21.49
2022-11-19T21:17:28.515Z,21.46
2022-11-19T21:19:54.832Z,21.47
2022-11-19T21:22:21.136Z,21.45
2022-11-19T21:24:48.637Z,21.46
2022-11-19T21:27:14.949Z,21.47
2022-11-19T21:29:41.661Z,21.47
2022-11-19T21:32:08.218Z,21.46
2022-11-19T21:34:34.541Z,21.43
2022-11-19T21:37:00.859Z,21.43
2022-11-19T21:39:27.218Z,21.43
2022-11-19T21:41:53.568Z,21.45
2022-11-19T21:44:21.945Z,21.43
2022-11-19T21:46:48.560Z,21.40
2022-11-19T21:49:14.937Z,21.40
2022-11-19T21:51:41.380Z,21.41
2022-11-19T21:54:07.696Z,21.40
2022-11-19T21:56:38.560Z,21.39
2022-11-19T21:59:05.535Z,21.37
2022-11-19T22:01:31.865Z,21.38
2022-11-19T22:03:58.193Z,21.36
2022-11-19T22:06:24.503Z,21.34
2022-11-19T22:08:50.870Z,21.31
2022-11-19T22:11:29.126Z,21.32
2022-11-19T22:13:56.207Z,21.27
2022-11-19T22:16:22.572Z,21.27
2022-11-19T22:18:48.887Z,21.24
2022-11-19T22:21:15.190Z,21.22
2022-11-19T22:23:41.517Z,21.21
2022-11-19T22:26:08.184Z,21.21
2022-11-19T22:28:34.618Z,21.21
2022-11-19T22:31:00.996Z,21.21
2022-11-19T22:33:33.618Z,21.20
2022-11-19T22:36:01.827Z,21.23
2022-11-19T22:38:31.455Z,21.23
2022-11-19T22:41:01.160Z,21.24
2022-11-19T22:43:30.243Z,21.25
2022-11-19T22:45:56.547Z,21.29
2022-11-19T22:48:22.934Z,21.27
2022-11-19T22:50:49.249Z,21.32
2022-11-19T22:53:17.153Z,21.32
2022-11-19T22:55:43.463Z,21.33
2022-11-19T22:58:09.776Z,21.36
2022-11-19T23:00:39.222Z,21.36
2022-11-19T23:03:05.568Z,21.36
2022-11-19T23:05:36.851Z,21.33
2022-11-19T23:08:03.886Z,21.34
2022-11-19T23:10:30.237Z,21.32
2022-11-19T23:13:15.135Z,21.32
2022-11-19T23:15:41.554Z,21.33
2022-11-19T23:18:07.896Z,21.31
2022-11-19T23:20:34.237Z,21.31
2022-11-19T23:23:00.566Z,21.33
2022-11-19T23:25:26.895Z,21.32
2022-11-19T23:27:53.222Z,21.34
2022-11-19T23:30:19.570Z,21.34
2022-11-19T23:32:46.035Z,21.33
2022-11-19T23:35:12.355Z,21.39
2022-11-19T23:37:38.663Z,21.41
2022-11-19T23:40:05.131Z,21.43
2022-11-19T23:42:31.487Z,21.43
2022-11-19T23:44:57.819Z,21.42
2022-11-19T23:47:24.203Z,21.43
2022-11-19T23:49:50.534Z,21.40
2022-11-19T23:52:16.865Z,21.39
2022-11-19T23:54:43.453Z,21.37
2022-11-19T23:57:09.817Z,21.34
2022-11-19T23:59:36.192Z,21.33
